sensor_id;sensor_type;location;lat;lon;timestamp;pressure;altitude;pressure_sealevel;temperature;humidity
15382;BME280;7789;51.364;12.358;2023-04-03T00:02:01;101580.41;;;4.63;75.33
15382;BME280;7789;51.364;12.358;2023-04-03T00:07:06;101573.75;;;4.56;75.12
15382;BME280;7789;51.364;12.358;2023-04-03T00:12:09;101585.03;;;4.55;75.14
15382;BME280;7789;51.364;12.358;2023-04-03T00:17:12;101574.53;;;4.58;75.44
15382;BME280;7789;51.364;12.358;2023-04-03T00:22:17;101584.25;;;4.53;75.41
15382;BME280;7789;51.364;12.358;2023-04-03T00:27:20;101594.84;;;4.47;74.96
15382;BME280;7789;51.364;12.358;2023-04-03T00:32:23;101590.16;;;4.33;74.96
15382;BME280;7789;51.364;12.358;2023-04-03T00:37:28;101599.72;;;4.31;75.70
15382;BME280;7789;51.364;12.358;2023-04-03T00:42:33;101585.50;;;4.20;75.70
15382;BME280;7789;51.364;12.358;2023-04-03T00:47:36;101592.00;;;4.07;75.59
15382;BME280;7789;51.364;12.358;2023-04-03T00:52:43;101592.97;;;4.04;76.12
15382;BME280;7789;51.364;12.358;2023-04-03T00:57:49;101593.38;;;3.92;76.39
15382;BME280;7789;51.364;12.358;2023-04-03T01:02:54;101609.06;;;3.88;76.58
15382;BME280;7789;51.364;12.358;2023-04-03T01:07:59;101601.75;;;3.76;77.25
15382;BME280;7789;51.364;12.358;2023-04-03T01:13:22;101602.78;;;3.70;77.93
15382;BME280;7789;51.364;12.358;2023-04-03T01:18:26;101607.53;;;3.58;77.30
15382;BME280;7789;51.364;12.358;2023-04-03T01:23:43;101604.38;;;3.49;78.30
15382;BME280;7789;51.364;12.358;2023-04-03T01:28:54;101611.56;;;3.41;77.88
15382;BME280;7789;51.364;12.358;2023-04-03T01:34:00;101611.78;;;3.35;78.50
15382;BME280;7789;51.364;12.358;2023-04-03T01:39:03;101614.63;;;3.26;79.28
15382;BME280;7789;51.364;12.358;2023-04-03T01:44:09;101620.84;;;3.20;79.55
15382;BME280;7789;51.364;12.358;2023-04-03T01:49:14;101627.88;;;3.17;79.73
15382;BME280;7789;51.364;12.358;2023-04-03T01:54:17;101627.13;;;3.12;79.93
15382;BME280;7789;51.364;12.358;2023-04-03T01:59:22;101633.09;;;3.14;79.91
15382;BME280;7789;51.364;12.358;2023-04-03T02:04:26;101630.44;;;3.17;80.04
15382;BME280;7789;51.364;12.358;2023-04-03T02:09:30;101639.22;;;3.11;80.34
15382;BME280;7789;51.364;12.358;2023-04-03T02:14:33;101653.13;;;3.07;80.84
15382;BME280;7789;51.364;12.358;2023-04-03T02:19:38;101652.41;;;3.02;80.86
15382;BME280;7789;51.364;12.358;2023-04-03T02:24:41;101648.22;;;2.98;81.12
15382;BME280;7789;51.364;12.358;2023-04-03T02:29:44;101659.44;;;2.97;81.14
15382;BME280;7789;51.364;12.358;2023-04-03T02:34:49;101674.25;;;2.92;81.71
15382;BME280;7789;51.364;12.358;2023-04-03T02:39:52;101670.09;;;2.87;82.35
15382;BME280;7789;51.364;12.358;2023-04-03T02:44:55;101679.13;;;2.72;82.10
15382;BME280;7789;51.364;12.358;2023-04-03T02:50:03;101670.09;;;2.58;83.16
15382;BME280;7789;51.364;12.358;2023-04-03T02:55:07;101679.72;;;2.53;83.58
15382;BME280;7789;51.364;12.358;2023-04-03T03:00:11;101676.47;;;2.45;84.10
15382;BME280;7789;51.364;12.358;2023-04-03T03:05:16;101690.47;;;2.36;84.80
15382;BME280;7789;51.364;12.358;2023-04-03T03:10:20;101684.72;;;2.27;85.43
15382;BME280;7789;51.364;12.358;2023-04-03T03:15:23;101688.38;;;2.18;85.71
15382;BME280;7789;51.364;12.358;2023-04-03T03:20:28;101696.38;;;2.09;85.95
15382;BME280;7789;51.364;12.358;2023-04-03T03:25:31;101688.78;;;2.03;86.74
15382;BME280;7789;51.364;12.358;2023-04-03T03:30:34;101702.72;;;1.98;87.15
15382;BME280;7789;51.364;12.358;2023-04-03T03:35:39;101702.84;;;1.92;87.71
15382;BME280;7789;51.364;12.358;2023-04-03T03:40:43;101702.28;;;1.81;88.08
15382;BME280;7789;51.364;12.358;2023-04-03T03:45:50;101705.78;;;1.78;88.53
15382;BME280;7789;51.364;12.358;2023-04-03T03:50:55;101713.59;;;1.76;88.97
15382;BME280;7789;51.364;12.358;2023-04-03T03:55:59;101713.72;;;1.70;89.46
15382;BME280;7789;51.364;12.358;2023-04-03T04:01:05;101714.69;;;1.66;89.90
15382;BME280;7789;51.364;12.358;2023-04-03T04:06:11;101723.34;;;1.63;90.42
15382;BME280;7789;51.364;12.358;2023-04-03T04:11:14;101722.72;;;1.54;90.89
15382;BME280;7789;51.364;12.358;2023-04-03T04:16:17;101728.84;;;1.48;91.15
15382;BME280;7789;51.364;12.358;2023-04-03T04:21:22;101734.19;;;1.41;91.76
15382;BME280;7789;51.364;12.358;2023-04-03T04:26:25;101729.09;;;1.38;92.25
15382;BME280;7789;51.364;12.358;2023-04-03T04:31:29;101734.34;;;1.33;92.52
15382;BME280;7789;51.364;12.358;2023-04-03T04:36:36;101745.56;;;1.31;92.69
15382;BME280;7789;51.364;12.358;2023-04-03T04:41:40;101749.88;;;1.30;92.82
15382;BME280;7789;51.364;12.358;2023-04-03T04:46:43;101749.91;;;1.29;92.84
15382;BME280;7789;51.364;12.358;2023-04-03T04:51:48;101763.56;;;1.31;92.47
15382;BME280;7789;51.364;12.358;2023-04-03T04:56:53;101755.91;;;1.29;92.95
15382;BME280;7789;51.364;12.358;2023-04-03T05:01:58;101756.75;;;1.30;93.09
15382;BME280;7789;51.364;12.358;2023-04-03T05:07:05;101767.91;;;1.30;92.77
15382;BME280;7789;51.364;12.358;2023-04-03T05:12:09;101763.56;;;1.31;92.54
15382;BME280;7789;51.364;12.358;2023-04-03T05:17:12;101762.63;;;1.35;92.65
15382;BME280;7789;51.364;12.358;2023-04-03T05:22:20;101772.88;;;1.38;92.69
15382;BME280;7789;51.364;12.358;2023-04-03T05:27:24;101768.41;;;1.44;92.27
15382;BME280;7789;51.364;12.358;2023-04-03T05:32:30;101772.66;;;1.48;92.08
15382;BME280;7789;51.364;12.358;2023-04-03T05:37:35;101787.88;;;1.57;92.15
15382;BME280;7789;51.364;12.358;2023-04-03T05:42:42;101779.16;;;1.63;91.79
15382;BME280;7789;51.364;12.358;2023-04-03T05:47:46;101785.69;;;1.77;91.77
15382;BME280;7789;51.364;12.358;2023-04-03T05:52:52;101793.13;;;1.89;90.84
15382;BME280;7789;51.364;12.358;2023-04-03T05:57:57;101795.47;;;1.99;90.60
15382;BME280;7789;51.364;12.358;2023-04-03T06:03:00;101801.94;;;2.15;90.07
15382;BME280;7789;51.364;12.358;2023-04-03T06:08:05;101812.69;;;4.59;85.43
15382;BME280;7789;51.364;12.358;2023-04-03T06:13:09;101806.34;;;7.60;72.69
15382;BME280;7789;51.364;12.358;2023-04-03T06:18:12;101802.69;;;9.65;66.47
15382;BME280;7789;51.364;12.358;2023-04-03T06:23:17;101808.13;;;10.95;61.54
15382;BME280;7789;51.364;12.358;2023-04-03T06:28:20;101795.06;;;12.43;56.20
15382;BME280;7789;51.364;12.358;2023-04-03T06:33:27;101797.91;;;13.75;51.77
15382;BME280;7789;51.364;12.358;2023-04-03T06:38:32;101797.88;;;14.69;47.48
15382;BME280;7789;51.364;12.358;2023-04-03T06:43:35;101799.09;;;16.17;45.60
15382;BME280;7789;51.364;12.358;2023-04-03T06:48:39;101805.41;;;16.57;42.17
15382;BME280;7789;51.364;12.358;2023-04-03T06:53:45;101812.22;;;17.60;40.13
15382;BME280;7789;51.364;12.358;2023-04-03T06:58:49;101823.69;;;17.10;38.98
15382;BME280;7789;51.364;12.358;2023-04-03T07:03:53;101809.13;;;16.75;39.10
15382;BME280;7789;51.364;12.358;2023-04-03T07:08:59;101820.22;;;17.79;36.35
15382;BME280;7789;51.364;12.358;2023-04-03T07:14:03;101823.25;;;17.05;37.41
15382;BME280;7789;51.364;12.358;2023-04-03T07:19:07;101818.63;;;18.54;34.93
15382;BME280;7789;51.364;12.358;2023-04-03T07:24:15;101824.59;;;17.60;35.14
15382;BME280;7789;51.364;12.358;2023-04-03T07:29:19;101831.88;;;17.77;34.44
15382;BME280;7789;51.364;12.358;2023-04-03T07:34:23;101841.53;;;15.72;36.34
15382;BME280;7789;51.364;12.358;2023-04-03T07:39:30;101844.19;;;15.61;36.41
15382;BME280;7789;51.364;12.358;2023-04-03T07:44:33;101841.56;;;16.77;34.41
15382;BME280;7789;51.364;12.358;2023-04-03T07:49:37;101841.91;;;16.93;34.50
15382;BME280;7789;51.364;12.358;2023-04-03T07:54:43;101833.81;;;17.65;33.61
15382;BME280;7789;51.364;12.358;2023-04-03T07:59:47;101838.72;;;16.89;34.80
15382;BME280;7789;51.364;12.358;2023-04-03T08:04:50;101823.31;;;16.54;35.07
15382;BME280;7789;51.364;12.358;2023-04-03T08:09:55;101823.56;;;16.08;34.41
15382;BME280;7789;51.364;12.358;2023-04-03T08:14:59;101835.19;;;14.29;36.37
15382;BME280;7789;51.364;12.358;2023-04-03T08:20:04;101831.03;;;13.04;37.90
15382;BME280;7789;51.364;12.358;2023-04-03T08:25:10;101836.03;;;12.31;39.79
15382;BME280;7789;51.364;12.358;2023-04-03T08:30:14;101839.59;;;12.30;40.07
15382;BME280;7789;51.364;12.358;2023-04-03T08:35:17;101850.19;;;11.48;42.17
15382;BME280;7789;51.364;12.358;2023-04-03T08:40:24;101847.16;;;10.84;42.21
15382;BME280;7789;51.364;12.358;2023-04-03T08:45:37;101844.97;;;10.18;42.84
15382;BME280;7789;51.364;12.358;2023-04-03T08:50:47;101850.22;;;10.18;43.20
15382;BME280;7789;51.364;12.358;2023-04-03T08:55:56;101858.94;;;10.32;42.93
15382;BME280;7789;51.364;12.358;2023-04-03T09:01:02;101850.88;;;9.90;43.41
15382;BME280;7789;51.364;12.358;2023-04-03T09:06:11;101849.94;;;9.60;44.19
15382;BME280;7789;51.364;12.358;2023-04-03T09:11:21;101841.69;;;9.68;44.73
15382;BME280;7789;51.364;12.358;2023-04-03T09:16:36;101855.94;;;9.93;42.98
15382;BME280;7789;51.364;12.358;2023-04-03T09:21:42;101844.09;;;11.05;41.78
15382;BME280;7789;51.364;12.358;2023-04-03T09:26:51;101852.78;;;10.63;42.31
15382;BME280;7789;51.364;12.358;2023-04-03T09:31:59;101848.97;;;10.09;43.34
15382;BME280;7789;51.364;12.358;2023-04-03T09:37:04;101852.56;;;9.91;43.25
15382;BME280;7789;51.364;12.358;2023-04-03T09:42:18;101853.88;;;9.52;41.90
15382;BME280;7789;51.364;12.358;2023-04-03T09:47:24;101844.97;;;10.02;43.40
15382;BME280;7789;51.364;12.358;2023-04-03T09:52:28;101831.81;;;9.73;42.41
15382;BME280;7789;51.364;12.358;2023-04-03T09:57:34;101848.22;;;9.44;43.22
15382;BME280;7789;51.364;12.358;2023-04-03T10:02:46;101835.66;;;9.35;44.30
15382;BME280;7789;51.364;12.358;2023-04-03T10:08:10;101831.22;;;9.83;44.76
15382;BME280;7789;51.364;12.358;2023-04-03T10:13:17;101837.50;;;9.81;43.38
15382;BME280;7789;51.364;12.358;2023-04-03T10:18:30;101817.53;;;9.80;42.42
15382;BME280;7789;51.364;12.358;2023-04-03T10:23:41;101819.09;;;9.98;41.44
15382;BME280;7789;51.364;12.358;2023-04-03T10:28:58;101811.44;;;9.79;42.39
15382;BME280;7789;51.364;12.358;2023-04-03T10:34:20;101822.91;;;9.61;42.20
15382;BME280;7789;51.364;12.358;2023-04-03T10:39:31;101822.97;;;9.60;41.82
15382;BME280;7789;51.364;12.358;2023-04-03T10:44:47;101798.13;;;9.84;43.36
15382;BME280;7789;51.364;12.358;2023-04-03T10:50:02;101801.91;;;9.47;43.86
15382;BME280;7789;51.364;12.358;2023-04-03T10:55:34;101806.09;;;9.34;44.50
15382;BME280;7789;51.364;12.358;2023-04-03T11:00:42;101796.00;;;9.44;42.48
15382;BME280;7789;51.364;12.358;2023-04-03T11:05:51;101802.03;;;9.13;43.18
15382;BME280;7789;51.364;12.358;2023-04-03T11:11:01;101810.31;;;9.21;42.35
15382;BME280;7789;51.364;12.358;2023-04-03T11:16:12;101787.78;;;9.67;42.05
15382;BME280;7789;51.364;12.358;2023-04-03T11:21:20;101794.66;;;9.37;42.66
15382;BME280;7789;51.364;12.358;2023-04-03T11:26:27;101787.56;;;9.08;41.58
15382;BME280;7789;51.364;12.358;2023-04-03T11:31:44;101781.09;;;9.15;42.26
15382;BME280;7789;51.364;12.358;2023-04-03T11:36:54;101776.88;;;9.13;42.15
15382;BME280;7789;51.364;12.358;2023-04-03T11:42:14;101769.22;;;9.10;43.10
15382;BME280;7789;51.364;12.358;2023-04-03T11:47:49;101777.63;;;8.99;44.29
15382;BME280;7789;51.364;12.358;2023-04-03T11:53:02;101777.63;;;9.14;43.93
15382;BME280;7789;51.364;12.358;2023-04-03T11:58:13;101768.00;;;9.32;43.16
15382;BME280;7789;51.364;12.358;2023-04-03T12:04:05;101768.00;;;9.00;43.02
15382;BME280;7789;51.364;12.358;2023-04-03T12:09:23;101770.66;;;8.83;42.78
15382;BME280;7789;51.364;12.358;2023-04-03T12:14:27;101757.97;;;9.24;42.89
15382;BME280;7789;51.364;12.358;2023-04-03T12:19:37;101755.59;;;9.20;43.48
15382;BME280;7789;51.364;12.358;2023-04-03T12:24:48;101753.41;;;9.13;43.47
15382;BME280;7789;51.364;12.358;2023-04-03T12:30:04;101747.50;;;9.09;42.81
15382;BME280;7789;51.364;12.358;2023-04-03T12:35:18;101762.31;;;9.09;42.47
15382;BME280;7789;51.364;12.358;2023-04-03T12:40:26;101754.38;;;8.95;42.43
15382;BME280;7789;51.364;12.358;2023-04-03T12:45:41;101745.34;;;8.85;42.93
15382;BME280;7789;51.364;12.358;2023-04-03T12:50:49;101748.28;;;8.79;42.89
15382;BME280;7789;51.364;12.358;2023-04-03T12:55:54;101744.75;;;8.80;42.95
15382;BME280;7789;51.364;12.358;2023-04-03T13:01:02;101743.59;;;8.85;42.89
15382;BME280;7789;51.364;12.358;2023-04-03T13:06:14;101735.94;;;8.82;42.06
15382;BME280;7789;51.364;12.358;2023-04-03T13:11:22;101741.22;;;8.81;43.95
15382;BME280;7789;51.364;12.358;2023-04-03T13:16:26;101737.47;;;8.86;44.26
15382;BME280;7789;51.364;12.358;2023-04-03T13:21:33;101741.47;;;8.76;43.06
15382;BME280;7789;51.364;12.358;2023-04-03T13:26:38;101738.72;;;8.79;43.36
15382;BME280;7789;51.364;12.358;2023-04-03T13:31:42;101730.03;;;8.79;43.08
15382;BME280;7789;51.364;12.358;2023-04-03T13:36:55;101734.25;;;8.81;42.20
15382;BME280;7789;51.364;12.358;2023-04-03T13:42:01;101735.81;;;8.68;42.01
15382;BME280;7789;51.364;12.358;2023-04-03T13:47:16;101732.63;;;8.63;41.54
15382;BME280;7789;51.364;12.358;2023-04-03T13:52:27;101720.09;;;8.70;42.06
15382;BME280;7789;51.364;12.358;2023-04-03T13:57:33;101732.66;;;8.79;42.57
15382;BME280;7789;51.364;12.358;2023-04-03T14:02:38;101730.78;;;8.65;43.01
15382;BME280;7789;51.364;12.358;2023-04-03T14:07:46;101734.63;;;8.41;43.63
15382;BME280;7789;51.364;12.358;2023-04-03T14:12:50;101722.69;;;8.37;43.65
15382;BME280;7789;51.364;12.358;2023-04-03T14:17:53;101725.50;;;8.33;43.91
15382;BME280;7789;51.364;12.358;2023-04-03T14:23:02;101735.16;;;8.31;43.33
15382;BME280;7789;51.364;12.358;2023-04-03T14:28:15;101717.19;;;8.26;44.23
15382;BME280;7789;51.364;12.358;2023-04-03T14:33:21;101727.06;;;8.20;44.45
15382;BME280;7789;51.364;12.358;2023-04-03T14:38:28;101721.28;;;8.13;45.29
15382;BME280;7789;51.364;12.358;2023-04-03T14:43:35;101711.41;;;8.03;43.66
15382;BME280;7789;51.364;12.358;2023-04-03T14:48:39;101715.69;;;8.04;43.39
15382;BME280;7789;51.364;12.358;2023-04-03T14:53:47;101717.06;;;8.11;43.58
15382;BME280;7789;51.364;12.358;2023-04-03T14:58:55;101716.84;;;7.98;43.53
15382;BME280;7789;51.364;12.358;2023-04-03T15:04:10;101719.22;;;7.86;44.00
15382;BME280;7789;51.364;12.358;2023-04-03T15:09:20;101724.94;;;7.75;43.60
15382;BME280;7789;51.364;12.358;2023-04-03T15:14:26;101718.50;;;7.65;43.25
15382;BME280;7789;51.364;12.358;2023-04-03T15:19:39;101719.56;;;7.61;43.05
15382;BME280;7789;51.364;12.358;2023-04-03T15:24:45;101723.13;;;7.59;43.31
15382;BME280;7789;51.364;12.358;2023-04-03T15:29:49;101718.84;;;7.58;43.46
15382;BME280;7789;51.364;12.358;2023-04-03T15:34:56;101725.00;;;7.38;44.04
15382;BME280;7789;51.364;12.358;2023-04-03T15:40:01;101714.94;;;7.31;43.85
15382;BME280;7789;51.364;12.358;2023-04-03T15:45:06;101717.06;;;7.23;44.25
15382;BME280;7789;51.364;12.358;2023-04-03T15:50:10;101712.03;;;7.20;45.14
15382;BME280;7789;51.364;12.358;2023-04-03T15:55:14;101713.75;;;7.20;44.28
15382;BME280;7789;51.364;12.358;2023-04-03T16:00:20;101715.19;;;7.08;45.13
15382;BME280;7789;51.364;12.358;2023-04-03T16:05:27;101712.09;;;7.00;44.35
15382;BME280;7789;51.364;12.358;2023-04-03T16:10:40;101712.78;;;7.04;44.57
15382;BME280;7789;51.364;12.358;2023-04-03T16:15:43;101722.75;;;6.94;45.25
15382;BME280;7789;51.364;12.358;2023-04-03T16:20:50;101714.38;;;6.88;45.21
15382;BME280;7789;51.364;12.358;2023-04-03T16:25:55;101718.13;;;6.82;44.75
15382;BME280;7789;51.364;12.358;2023-04-03T16:31:06;101713.63;;;6.86;46.45
15382;BME280;7789;51.364;12.358;2023-04-03T16:36:18;101710.53;;;6.78;46.00
15382;BME280;7789;51.364;12.358;2023-04-03T16:41:23;101715.28;;;6.68;46.09
15382;BME280;7789;51.364;12.358;2023-04-03T16:46:26;101714.72;;;6.80;47.13
15382;BME280;7789;51.364;12.358;2023-04-03T16:51:31;101720.34;;;6.71;47.09
15382;BME280;7789;51.364;12.358;2023-04-03T16:56:36;101710.16;;;6.67;47.06
15382;BME280;7789;51.364;12.358;2023-04-03T17:01:40;101716.78;;;6.54;47.48
15382;BME280;7789;51.364;12.358;2023-04-03T17:06:43;101715.25;;;6.50;47.10
15382;BME280;7789;51.364;12.358;2023-04-03T17:11:50;101707.00;;;6.40;47.03
15382;BME280;7789;51.364;12.358;2023-04-03T17:16:55;101709.81;;;6.36;47.62
15382;BME280;7789;51.364;12.358;2023-04-03T17:21:59;101717.47;;;6.39;47.86
15382;BME280;7789;51.364;12.358;2023-04-03T17:27:10;101707.97;;;6.38;48.27
15382;BME280;7789;51.364;12.358;2023-04-03T17:32:14;101715.06;;;6.34;48.64
15382;BME280;7789;51.364;12.358;2023-04-03T17:37:18;101722.19;;;6.29;48.59
15382;BME280;7789;51.364;12.358;2023-04-03T17:42:31;101723.97;;;6.29;48.81
15382;BME280;7789;51.364;12.358;2023-04-03T17:47:36;101724.78;;;6.29;48.84
15382;BME280;7789;51.364;12.358;2023-04-03T17:52:40;101729.28;;;6.26;49.31
15382;BME280;7789;51.364;12.358;2023-04-03T17:57:51;101728.13;;;6.33;50.04
15382;BME280;7789;51.364;12.358;2023-04-03T18:02:54;101723.06;;;6.30;50.13
15382;BME280;7789;51.364;12.358;2023-04-03T18:08:08;101725.84;;;6.25;51.24
15382;BME280;7789;51.364;12.358;2023-04-03T18:13:19;101727.16;;;6.15;51.44
15382;BME280;7789;51.364;12.358;2023-04-03T18:18:23;101726.78;;;6.03;49.19
15382;BME280;7789;51.364;12.358;2023-04-03T18:23:33;101728.84;;;5.96;48.49
15382;BME280;7789;51.364;12.358;2023-04-03T18:28:45;101733.13;;;5.97;48.57
15382;BME280;7789;51.364;12.358;2023-04-03T18:33:52;101735.44;;;6.03;49.43
15382;BME280;7789;51.364;12.358;2023-04-03T18:39:02;101733.13;;;5.97;48.45
15382;BME280;7789;51.364;12.358;2023-04-03T18:44:10;101732.38;;;5.94;48.82
15382;BME280;7789;51.364;12.358;2023-04-03T18:49:19;101739.38;;;5.92;48.12
15382;BME280;7789;51.364;12.358;2023-04-03T18:54:23;101741.84;;;5.95;48.64
15382;BME280;7789;51.364;12.358;2023-04-03T18:59:34;101740.75;;;6.00;49.13
15382;BME280;7789;51.364;12.358;2023-04-03T19:04:38;101732.25;;;5.97;48.93
15382;BME280;7789;51.364;12.358;2023-04-03T19:09:52;101733.88;;;5.99;49.38
15382;BME280;7789;51.364;12.358;2023-04-03T19:14:56;101733.16;;;5.96;50.30
15382;BME280;7789;51.364;12.358;2023-04-03T19:20:00;101733.34;;;5.91;49.99
15382;BME280;7789;51.364;12.358;2023-04-03T19:25:05;101733.59;;;5.85;50.35
15382;BME280;7789;51.364;12.358;2023-04-03T19:30:15;101735.41;;;5.83;50.34
15382;BME280;7789;51.364;12.358;2023-04-03T19:35:19;101731.91;;;5.84;50.97
15382;BME280;7789;51.364;12.358;2023-04-03T19:40:30;101725.81;;;5.85;51.40
15382;BME280;7789;51.364;12.358;2023-04-03T19:45:40;101730.22;;;5.83;52.36
15382;BME280;7789;51.364;12.358;2023-04-03T19:50:47;101729.50;;;5.80;52.19
15382;BME280;7789;51.364;12.358;2023-04-03T19:55:52;101731.28;;;5.78;52.32
15382;BME280;7789;51.364;12.358;2023-04-03T20:01:00;101733.00;;;5.79;52.16
15382;BME280;7789;51.364;12.358;2023-04-03T20:06:10;101733.09;;;5.76;52.50
15382;BME280;7789;51.364;12.358;2023-04-03T20:11:15;101739.19;;;5.75;52.95
15382;BME280;7789;51.364;12.358;2023-04-03T20:16:24;101739.06;;;5.79;53.19
15382;BME280;7789;51.364;12.358;2023-04-03T20:21:29;101728.03;;;5.73;52.99
15382;BME280;7789;51.364;12.358;2023-04-03T20:26:36;101723.63;;;5.75;53.31
15382;BME280;7789;51.364;12.358;2023-04-03T20:31:48;101723.69;;;5.73;53.54
15382;BME280;7789;51.364;12.358;2023-04-03T20:36:54;101714.22;;;5.72;54.21
15382;BME280;7789;51.364;12.358;2023-04-03T20:41:57;101718.56;;;5.72;54.08
15382;BME280;7789;51.364;12.358;2023-04-03T20:47:03;101715.28;;;5.67;54.17
15382;BME280;7789;51.364;12.358;2023-04-03T20:52:07;101711.09;;;5.64;54.00
15382;BME280;7789;51.364;12.358;2023-04-03T20:57:14;101705.91;;;5.64;54.08
15382;BME280;7789;51.364;12.358;2023-04-03T21:02:19;101702.47;;;5.64;54.33
15382;BME280;7789;51.364;12.358;2023-04-03T21:24:12;101708.94;;;5.54;54.83
15382;BME280;7789;51.364;12.358;2023-04-03T21:29:15;101712.31;;;5.56;55.15
15382;BME280;7789;51.364;12.358;2023-04-03T21:34:20;101704.53;;;5.56;55.44
15382;BME280;7789;51.364;12.358;2023-04-03T21:39:25;101707.22;;;5.53;55.69
15382;BME280;7789;51.364;12.358;2023-04-03T21:44:32;101705.34;;;5.56;55.80
15382;BME280;7789;51.364;12.358;2023-04-03T21:49:36;101709.63;;;5.57;56.23
15382;BME280;7789;51.364;12.358;2023-04-03T21:54:39;101701.25;;;5.51;56.15
15382;BME280;7789;51.364;12.358;2023-04-03T21:59:43;101698.66;;;5.51;56.63
15382;BME280;7789;51.364;12.358;2023-04-03T22:04:48;101688.41;;;5.48;57.03
15382;BME280;7789;51.364;12.358;2023-04-03T22:09:52;101694.63;;;5.44;57.58
15382;BME280;7789;51.364;12.358;2023-04-03T22:14:55;101694.88;;;5.38;57.56
15382;BME280;7789;51.364;12.358;2023-04-03T22:20:00;101687.03;;;5.39;58.25
15382;BME280;7789;51.364;12.358;2023-04-03T22:25:04;101678.59;;;5.35;58.51
15382;BME280;7789;51.364;12.358;2023-04-03T22:30:08;101676.06;;;5.33;58.95
15382;BME280;7789;51.364;12.358;2023-04-03T22:35:14;101674.25;;;5.35;59.38
15382;BME280;7789;51.364;12.358;2023-04-03T22:40:17;101672.63;;;5.33;59.17
15382;BME280;7789;51.364;12.358;2023-04-03T22:45:21;101667.63;;;5.28;59.41
15382;BME280;7789;51.364;12.358;2023-04-03T22:50:25;101665.16;;;5.25;60.15
15382;BME280;7789;51.364;12.358;2023-04-03T22:55:29;101664.50;;;5.20;59.88
15382;BME280;7789;51.364;12.358;2023-04-03T23:00:32;101660.03;;;5.24;60.67
15382;BME280;7789;51.364;12.358;2023-04-03T23:05:39;101658.34;;;5.23;61.96
15382;BME280;7789;51.364;12.358;2023-04-03T23:10:43;101660.94;;;5.23;61.81
15382;BME280;7789;51.364;12.358;2023-04-03T23:15:51;101668.09;;;5.16;61.96
15382;BME280;7789;51.364;12.358;2023-04-03T23:20:57;101664.72;;;5.14;62.12
15382;BME280;7789;51.364;12.358;2023-04-03T23:26:01;101671.59;;;5.15;62.67
15382;BME280;7789;51.364;12.358;2023-04-03T23:31:04;101670.16;;;5.08;63.24
15382;BME280;7789;51.364;12.358;2023-04-03T23:36:11;101673.81;;;5.03;63.55
15382;BME280;7789;51.364;12.358;2023-04-03T23:41:16;101671.09;;;5.06;63.72
15382;BME280;7789;51.364;12.358;2023-04-03T23:46:20;101680.63;;;5.05;64.64
15382;BME280;7789;51.364;12.358;2023-04-03T23:51:25;101671.28;;;5.01;64.27
15382;BME280;7789;51.364;12.358;2023-04-03T23:56:29;101668.63;;;5.03;64.75
